createdAt,value
2023-09-27T00:01:06.702Z,9.00
2023-09-27T00:03:09.857Z,9.75
2023-09-27T00:05:12.543Z,10.00
2023-09-27T00:07:15.359Z,9.25
2023-09-27T00:09:17.311Z,6.50
2023-09-27T00:11:19.299Z,8.80
2023-09-27T00:13:20.996Z,8.50
2023-09-27T00:15:24.711Z,12.50
2023-09-27T00:17:26.379Z,12.50
2023-09-27T00:19:28.154Z,10.00
2023-09-27T00:21:29.872Z,10.75
2023-09-27T00:23:31.610Z,9.00
2023-09-27T00:25:34.010Z,10.25
2023-09-27T00:27:36.969Z,10.00
2023-09-27T00:29:39.324Z,8.40
2023-09-27T00:31:42.850Z,8.80
2023-09-27T00:33:44.524Z,10.50
2023-09-27T00:35:49.224Z,7.60
2023-09-27T00:37:51.413Z,4.80
2023-09-27T00:39:53.312Z,9.80
2023-09-27T00:41:56.115Z,9.00
2023-09-27T00:43:58.365Z,10.50
2023-09-27T00:46:02.430Z,10.50
2023-09-27T00:48:06.778Z,8.00
2023-09-27T00:50:09.855Z,11.50
2023-09-27T00:52:13.766Z,11.00
2023-09-27T00:54:16.440Z,9.00
2023-09-27T00:56:18.412Z,8.25
2023-09-27T00:58:21.690Z,8.00
2023-09-27T01:00:23.787Z,9.00
2023-09-27T01:02:26.435Z,10.00
2023-09-27T01:04:30.761Z,7.60
2023-09-27T01:06:37.075Z,9.25
2023-09-27T01:08:39.168Z,7.00
2023-09-27T01:10:42.987Z,7.00
2023-09-27T01:12:44.677Z,5.50
2023-09-27T01:14:46.526Z,8.25
2023-09-27T01:16:48.219Z,6.00
2023-09-27T01:18:49.816Z,6.00
2023-09-27T01:20:53.309Z,5.75
2023-09-27T01:22:58.763Z,7.00
2023-09-27T01:25:03.607Z,5.00
2023-09-27T01:27:10.680Z,4.00
2023-09-27T01:29:12.344Z,6.25
2023-09-27T01:31:14.621Z,7.00
2023-09-27T01:33:17.483Z,4.25
2023-09-27T01:35:19.914Z,5.60
2023-09-27T01:37:23.273Z,7.40
2023-09-27T01:39:27.405Z,6.25
2023-09-27T01:41:29.298Z,7.25
2023-09-27T01:43:31.202Z,5.25
2023-09-27T01:45:33.217Z,6.00
2023-09-27T01:47:35.011Z,5.80
2023-09-27T01:49:37.116Z,6.25
2023-09-27T01:51:38.667Z,5.75
2023-09-27T01:53:40.413Z,5.00
2023-09-27T01:55:45.252Z,6.75
2023-09-27T01:57:47.692Z,6.00
2023-09-27T01:59:49.940Z,6.50
2023-09-27T02:01:51.580Z,6.25
2023-09-27T02:03:53.666Z,6.50
2023-09-27T02:06:00.421Z,8.50
2023-09-27T02:08:02.483Z,6.75
2023-09-27T02:10:05.160Z,6.75
2023-09-27T02:12:08.367Z,5.75
2023-09-27T02:14:11.338Z,6.00
2023-09-27T02:16:13.336Z,7.75
2023-09-27T02:18:15.114Z,9.25
2023-09-27T02:20:18.871Z,8.25
2023-09-27T02:22:20.850Z,10.00
2023-09-27T02:24:22.792Z,10.25
2023-09-27T02:26:26.517Z,8.25
2023-09-27T02:28:30.053Z,10.25
2023-09-27T02:30:31.734Z,7.75
2023-09-27T02:32:33.913Z,8.25
2023-09-27T02:34:36.336Z,8.50
2023-09-27T02:36:38.706Z,6.25
2023-09-27T02:38:40.558Z,7.75
2023-09-27T02:40:42.221Z,7.00
2023-09-27T02:42:46.010Z,7.25
2023-09-27T02:44:49.203Z,6.00
2023-09-27T02:46:53.080Z,6.75
2023-09-27T02:48:55.578Z,8.00
2023-09-27T02:50:58.421Z,5.75
2023-09-27T02:53:00.138Z,8.75
2023-09-27T02:55:02.902Z,7.25
2023-09-27T02:57:04.552Z,10.00
2023-09-27T02:59:06.286Z,7.25
2023-09-27T03:01:11.467Z,12.75
2023-09-27T03:03:15.284Z,11.00
2023-09-27T03:05:17.241Z,10.00
2023-09-27T03:07:18.932Z,12.50
2023-09-27T03:09:20.934Z,11.50
2023-09-27T03:11:22.804Z,8.25
2023-09-27T03:13:24.752Z,11.25
2023-09-27T03:15:26.568Z,9.50
2023-09-27T03:17:29.901Z,12.75
2023-09-27T03:19:32.065Z,14.50
2023-09-27T03:21:33.915Z,11.00
2023-09-27T03:23:35.895Z,12.50
2023-09-27T03:25:37.793Z,14.00
2023-09-27T03:27:39.748Z,11.75
2023-09-27T03:29:41.704Z,14.25
2023-09-27T03:31:43.418Z,16.25
2023-09-27T03:33:46.660Z,15.25
2023-09-27T03:35:48.524Z,13.25
2023-09-27T03:37:51.538Z,13.75
2023-09-27T03:39:56.018Z,12.50
2023-09-27T03:41:57.889Z,16.50
2023-09-27T03:44:00.126Z,9.25
2023-09-27T03:46:02.548Z,11.00
2023-09-27T03:48:05.065Z,15.00
2023-09-27T03:50:09.173Z,10.75
2023-09-27T03:52:11.245Z,16.25
2023-09-27T03:54:12.926Z,14.75
2023-09-27T03:56:14.715Z,11.00
2023-09-27T03:58:16.840Z,16.00
2023-09-27T04:00:19.535Z,15.00
2023-09-27T04:02:21.287Z,15.75
2023-09-27T04:04:24.653Z,15.00
2023-09-27T04:06:38.264Z,12.75
2023-09-27T04:08:39.962Z,12.00
2023-09-27T04:10:41.955Z,13.75
2023-09-27T04:12:44.270Z,12.00
2023-09-27T04:14:46.318Z,25.00
2023-09-27T04:16:48.158Z,18.75
2023-09-27T04:18:50.126Z,16.75
2023-09-27T04:20:51.775Z,8.25
2023-09-27T04:22:54.786Z,11.00
2023-09-27T04:24:56.951Z,14.50
2023-09-27T04:26:59.817Z,14.00
2023-09-27T04:29:01.786Z,13.50
2023-09-27T04:31:03.559Z,13.75
2023-09-27T04:33:05.666Z,12.75
2023-09-27T04:35:07.876Z,11.75
2023-09-27T04:37:09.533Z,20.00
2023-09-27T04:39:12.522Z,5.25
2023-09-27T04:41:14.454Z,9.75
2023-09-27T04:43:16.390Z,11.25
2023-09-27T04:45:18.263Z,13.25
2023-09-27T04:47:20.004Z,22.50
2023-09-27T04:49:22.168Z,15.50
2023-09-27T04:51:24.082Z,13.00
2023-09-27T04:53:25.827Z,15.00
2023-09-27T04:55:29.217Z,19.50
2023-09-27T04:57:30.902Z,13.25
2023-09-27T04:59:32.584Z,11.50
2023-09-27T05:01:34.287Z,14.00
2023-09-27T05:03:36.236Z,14.50
2023-09-27T05:05:37.864Z,13.00
2023-09-27T05:07:39.778Z,12.50
2023-09-27T05:09:42.677Z,11.00
2023-09-27T05:11:46.198Z,13.50
2023-09-27T05:13:48.058Z,12.25
2023-09-27T05:15:50.249Z,9.00
2023-09-27T05:17:52.187Z,7.00
2023-09-27T05:19:54.764Z,11.75
2023-09-27T05:21:56.673Z,12.00
2023-09-27T05:23:58.309Z,11.50
2023-09-27T05:26:00.358Z,10.25
2023-09-27T05:28:04.477Z,12.75
2023-09-27T05:30:07.383Z,8.50
2023-09-27T05:32:09.240Z,19.25
2023-09-27T05:34:11.106Z,22.75
2023-09-27T05:36:13.437Z,12.00
2023-09-27T05:38:15.265Z,11.00
2023-09-27T05:40:17.400Z,10.00
2023-09-27T05:42:19.414Z,11.25
2023-09-27T05:44:22.612Z,11.25
2023-09-27T05:46:24.650Z,10.00
2023-09-27T05:48:26.463Z,11.50
2023-09-27T05:50:29.988Z,10.75
2023-09-27T05:52:32.032Z,11.75
2023-09-27T05:54:33.757Z,14.00
2023-09-27T05:56:36.247Z,13.25
2023-09-27T05:58:38.130Z,15.50
2023-09-27T06:00:41.603Z,13.75
2023-09-27T06:02:43.541Z,15.25
2023-09-27T06:04:46.945Z,13.50
2023-09-27T06:06:49.317Z,15.00
2023-09-27T06:08:51.192Z,13.00
2023-09-27T06:10:53.082Z,13.25
2023-09-27T06:12:55.503Z,16.25
2023-09-27T06:14:57.375Z,15.75
2023-09-27T06:17:00.678Z,18.75
2023-09-27T06:19:02.582Z,17.00
2023-09-27T06:21:04.947Z,15.25
2023-09-27T06:23:06.855Z,15.50
2023-09-27T06:25:09.453Z,14.50
2023-09-27T06:27:11.426Z,15.75
2023-09-27T06:29:13.118Z,15.75
2023-09-27T06:31:15.484Z,16.00
2023-09-27T06:33:18.858Z,14.00
2023-09-27T06:35:20.603Z,15.00
2023-09-27T06:37:22.449Z,15.00
2023-09-27T06:39:24.695Z,17.00
2023-09-27T06:41:26.585Z,14.75
2023-09-27T06:43:28.434Z,14.00
2023-09-27T06:45:30.160Z,17.50
2023-09-27T06:47:31.991Z,14.00
2023-09-27T06:49:35.212Z,15.25
2023-09-27T06:51:36.859Z,14.80
2023-09-27T06:53:38.602Z,16.20
2023-09-27T06:55:41.238Z,16.00
2023-09-27T06:57:44.269Z,16.20
2023-09-27T06:59:45.865Z,17.20
2023-09-27T07:01:47.474Z,16.60
2023-09-27T07:03:49.273Z,15.60
2023-09-27T07:05:52.441Z,16.40
2023-09-27T07:07:55.337Z,17.00
2023-09-27T07:09:57.285Z,15.80
2023-09-27T07:11:59.516Z,14.80
2023-09-27T07:14:01.390Z,15.60
2023-09-27T07:16:04.054Z,13.80
2023-09-27T07:18:06.336Z,17.40
2023-09-27T07:20:10.231Z,17.00
2023-09-27T07:22:13.523Z,15.40
2023-09-27T07:24:15.214Z,16.80
2023-09-27T07:26:17.081Z,15.20
2023-09-27T07:28:19.149Z,16.00
2023-09-27T07:30:21.035Z,14.20
2023-09-27T07:32:22.980Z,15.20
2023-09-27T07:34:24.658Z,14.20
2023-09-27T07:36:26.746Z,15.60
2023-09-27T07:38:29.932Z,15.00
2023-09-27T07:40:31.631Z,15.00
2023-09-27T07:42:33.298Z,16.80
2023-09-27T07:44:35.112Z,17.20
2023-09-27T07:46:36.920Z,16.00
2023-09-27T07:48:38.799Z,15.00
2023-09-27T07:50:40.524Z,16.60
2023-09-27T07:52:42.707Z,15.00
2023-09-27T07:54:46.066Z,16.40
2023-09-27T07:56:47.808Z,15.20
2023-09-27T07:58:50.152Z,15.60
2023-09-27T08:00:52.364Z,15.40
2023-09-27T08:02:54.417Z,15.20
2023-09-27T08:04:56.396Z,14.60
2023-09-27T08:06:58.047Z,14.25
2023-09-27T08:08:59.886Z,10.25
2023-09-27T08:11:03.135Z,12.20
2023-09-27T08:13:04.792Z,14.25
2023-09-27T08:15:08.329Z,14.50
2023-09-27T08:17:10.320Z,13.50
2023-09-27T08:19:12.073Z,13.25
2023-09-27T08:21:13.713Z,15.25
2023-09-27T08:23:15.404Z,12.25
2023-09-27T08:25:17.208Z,13.75
2023-09-27T08:27:20.783Z,14.00
2023-09-27T08:29:22.677Z,13.50
2023-09-27T08:31:24.461Z,13.00
2023-09-27T08:33:26.247Z,14.00
2023-09-27T08:35:28.468Z,13.25
2023-09-27T08:37:30.190Z,13.00
2023-09-27T08:39:32.626Z,11.25
2023-09-27T08:41:34.981Z,12.50
2023-09-27T08:43:39.411Z,11.75
2023-09-27T08:45:41.626Z,12.00
2023-09-27T08:47:46.754Z,12.25
2023-09-27T08:49:49.006Z,12.00
2023-09-27T08:51:52.315Z,9.00
2023-09-27T08:53:54.167Z,11.75
2023-09-27T08:55:56.187Z,12.75
2023-09-27T08:57:58.562Z,12.00
2023-09-27T09:00:02.155Z,11.25
2023-09-27T09:02:05.203Z,12.50
2023-09-27T09:04:07.236Z,8.25
2023-09-27T09:06:10.602Z,10.25
2023-09-27T09:08:12.433Z,11.00
2023-09-27T09:10:15.031Z,14.00
2023-09-27T09:12:16.701Z,12.25
2023-09-27T09:14:19.871Z,10.75
2023-09-27T09:16:23.059Z,12.00
2023-09-27T09:18:29.041Z,11.50
2023-09-27T09:20:31.238Z,13.00
2023-09-27T09:22:44.279Z,11.75
2023-09-27T09:24:45.962Z,12.00
2023-09-27T09:26:48.043Z,10.50
2023-09-27T09:28:53.818Z,12.75
2023-09-27T09:30:56.346Z,9.25
2023-09-27T09:32:59.864Z,10.25
2023-09-27T09:35:01.675Z,10.00
2023-09-27T09:37:03.319Z,7.25
2023-09-27T09:39:06.108Z,12.00
2023-09-27T09:41:07.721Z,11.00
2023-09-27T09:43:09.377Z,9.25
2023-09-27T09:45:11.434Z,10.50
2023-09-27T09:47:13.584Z,10.00
2023-09-27T09:49:17.121Z,10.50
2023-09-27T09:51:23.762Z,11.00
2023-09-27T09:53:26.227Z,10.00
2023-09-27T09:55:45.671Z,9.00
2023-09-27T09:57:55.969Z,10.25
2023-09-27T10:00:05.749Z,11.00
2023-09-27T10:02:19.984Z,9.00
2023-09-27T10:04:25.706Z,8.50
2023-09-27T10:06:45.236Z,7.00
2023-09-27T10:08:50.711Z,10.00
2023-09-27T10:10:52.304Z,9.25
2023-09-27T10:12:55.659Z,10.00
2023-09-27T10:14:57.806Z,8.50
2023-09-27T10:16:59.613Z,8.75
2023-09-27T10:19:02.212Z,9.00
2023-09-27T10:21:07.571Z,8.00
2023-09-27T10:23:10.395Z,8.50
2023-09-27T10:25:36.468Z,8.00
2023-09-27T10:28:05.191Z,8.75
2023-09-27T10:30:07.464Z,7.75
2023-09-27T10:32:18.019Z,9.00
2023-09-27T10:34:43.678Z,5.00
2023-09-27T10:39:01.850Z,7.50
2023-09-27T10:41:04.775Z,7.40
2023-09-27T10:43:06.381Z,6.40
2023-09-27T10:45:09.923Z,8.25
2023-09-27T10:47:11.544Z,8.00
2023-09-27T10:49:20.299Z,8.00
2023-09-27T10:51:22.552Z,5.00
2023-09-27T10:53:25.598Z,8.25
2023-09-27T10:55:37.529Z,6.00
2023-09-27T10:57:40.951Z,7.00
2023-09-27T10:59:42.697Z,8.00
2023-09-27T11:01:45.989Z,8.00
2023-09-27T11:03:47.662Z,2.80
2023-09-27T11:05:49.471Z,6.60
2023-09-27T11:07:51.391Z,7.20
2023-09-27T11:09:54.389Z,7.60
2023-09-27T11:11:56.346Z,7.00
2023-09-27T11:13:58.694Z,7.60
2023-09-27T11:16:09.969Z,8.40
2023-09-27T11:18:12.412Z,8.20
2023-09-27T11:20:15.644Z,8.00
2023-09-27T11:22:24.797Z,8.80
2023-09-27T11:24:37.193Z,7.80
2023-09-27T11:26:44.426Z,9.00
2023-09-27T11:28:46.170Z,7.40
2023-09-27T11:30:57.005Z,6.40
2023-09-27T11:32:59.446Z,6.60
2023-09-27T11:35:01.050Z,7.80
2023-09-27T11:37:02.583Z,6.20
2023-09-27T11:39:04.212Z,6.80
2023-09-27T11:41:06.351Z,7.20
2023-09-27T11:43:09.585Z,7.40
2023-09-27T11:45:12.047Z,6.60
2023-09-27T11:47:13.675Z,5.40
2023-09-27T11:49:15.252Z,9.20
2023-09-27T11:51:16.875Z,7.80
2023-09-27T11:53:18.509Z,6.60
2023-09-27T11:55:20.191Z,6.60
2023-09-27T11:57:21.859Z,7.60
2023-09-27T11:59:25.188Z,7.00
2023-09-27T12:01:26.890Z,7.00
2023-09-27T12:03:28.608Z,4.60
2023-09-27T12:05:30.714Z,6.40
2023-09-27T12:07:32.779Z,7.80
2023-09-27T12:09:34.850Z,5.00
2023-09-27T12:11:37.221Z,6.60
2023-09-27T12:13:38.917Z,5.20
2023-09-27T12:15:42.345Z,6.00
2023-09-27T12:17:44.390Z,7.20
2023-09-27T12:19:46.511Z,4.80
2023-09-27T12:21:48.268Z,6.80
2023-09-27T12:23:49.945Z,6.60
2023-09-27T12:25:51.800Z,7.00
2023-09-27T12:27:53.484Z,6.80
2023-09-27T12:29:55.426Z,8.40
2023-09-27T12:31:58.638Z,7.60
2023-09-27T12:34:00.422Z,8.20
2023-09-27T12:36:02.104Z,10.40
2023-09-27T12:38:04.107Z,10.20
2023-09-27T12:40:07.135Z,10.60
2023-09-27T12:42:08.871Z,11.80
2023-09-27T12:44:15.887Z,7.00
2023-09-27T12:46:23.581Z,11.60
2023-09-27T12:48:26.804Z,9.00
2023-09-27T12:50:28.568Z,10.20
2023-09-27T12:52:30.362Z,10.00
2023-09-27T12:54:32.017Z,9.40
2023-09-27T12:56:33.724Z,9.60
2023-09-27T12:58:35.621Z,10.00
2023-09-27T13:00:38.369Z,9.20
2023-09-27T13:02:40.311Z,8.60
2023-09-27T13:04:43.554Z,6.80
2023-09-27T13:06:45.376Z,8.00
2023-09-27T13:08:46.993Z,10.40
2023-09-27T13:10:48.623Z,10.60
2023-09-27T13:12:50.178Z,13.00
2023-09-27T13:14:51.857Z,12.50
2023-09-27T13:16:53.472Z,11.50
2023-09-27T13:18:55.247Z,10.00
2023-09-27T13:20:58.414Z,8.75
2023-09-27T13:22:59.958Z,9.00
2023-09-27T13:25:01.606Z,9.40
2023-09-27T13:27:03.197Z,9.00
2023-09-27T13:29:05.020Z,9.40
2023-09-27T13:31:06.634Z,9.25
2023-09-27T13:33:08.241Z,8.00
2023-09-27T13:35:10.024Z,10.00
2023-09-27T13:37:12.994Z,8.00
2023-09-27T13:39:14.609Z,10.25
2023-09-27T13:41:16.398Z,9.75
2023-09-27T13:43:18.067Z,9.00
2023-09-27T13:45:19.817Z,9.50
2023-09-27T13:47:21.976Z,8.25
2023-09-27T13:49:23.636Z,8.75
2023-09-27T13:51:25.232Z,11.50
2023-09-27T13:53:28.271Z,8.75
2023-09-27T13:55:30.165Z,9.00
2023-09-27T13:57:32.107Z,10.25
2023-09-27T13:59:33.788Z,7.00
2023-09-27T14:01:35.498Z,9.00
2023-09-27T14:03:37.187Z,9.75
2023-09-27T14:05:38.929Z,11.25
2023-09-27T14:07:41.290Z,9.50
2023-09-27T14:09:44.335Z,9.75
2023-09-27T14:11:47.299Z,10.00
2023-09-27T14:13:49.021Z,10.00
2023-09-27T14:15:50.944Z,8.75
2023-09-27T14:17:52.841Z,12.00
2023-09-27T14:19:54.621Z,10.00
2023-09-27T14:21:56.434Z,11.50
2023-09-27T14:23:58.098Z,11.25
2023-09-27T14:26:01.474Z,13.50
2023-09-27T14:28:03.435Z,11.00
2023-09-27T14:30:06.235Z,12.00
2023-09-27T14:32:08.350Z,11.50
2023-09-27T14:34:10.036Z,14.50
2023-09-27T14:36:11.749Z,12.75
2023-09-27T14:38:13.729Z,16.50
2023-09-27T14:40:15.630Z,13.50
2023-09-27T14:42:18.972Z,14.00
2023-09-27T14:44:20.937Z,14.50
2023-09-27T14:46:22.824Z,14.50
2023-09-27T14:48:24.747Z,14.25
2023-09-27T14:50:26.452Z,15.00
2023-09-27T14:52:28.188Z,14.50
2023-09-27T14:54:30.249Z,13.50
2023-09-27T14:56:32.157Z,13.00
2023-09-27T14:58:35.738Z,14.00
2023-09-27T15:00:37.399Z,13.00
2023-09-27T15:02:39.120Z,14.25
2023-09-27T15:04:41.097Z,15.25
2023-09-27T15:06:42.791Z,13.50
2023-09-27T15:08:44.438Z,12.75
2023-09-27T15:10:46.449Z,12.50
2023-09-27T15:12:48.037Z,15.00
2023-09-27T15:14:51.077Z,13.75
2023-09-27T15:16:52.846Z,13.25
2023-09-27T15:18:54.544Z,12.50
2023-09-27T15:20:56.128Z,14.00
2023-09-27T15:22:57.733Z,8.25
2023-09-27T15:24:59.537Z,13.50
2023-09-27T15:27:01.187Z,12.50
2023-09-27T15:29:02.793Z,14.50
2023-09-27T15:31:07.649Z,13.00
2023-09-27T15:33:09.335Z,13.50
2023-09-27T15:35:10.946Z,14.25
2023-09-27T15:37:12.582Z,13.50
2023-09-27T15:39:14.143Z,15.00
2023-09-27T15:41:16.207Z,13.25
2023-09-27T15:43:18.054Z,13.00
2023-09-27T15:45:20.107Z,11.00
2023-09-27T15:47:23.042Z,13.00
2023-09-27T15:49:24.639Z,14.00
2023-09-27T15:51:26.248Z,13.25
2023-09-27T15:53:31.846Z,13.25
2023-09-27T15:55:33.464Z,12.75
2023-09-27T15:57:35.262Z,10.25
2023-09-27T15:59:36.848Z,14.25
2023-09-27T16:01:38.504Z,13.75
2023-09-27T16:03:41.507Z,14.25
2023-09-27T16:05:46.946Z,12.00
2023-09-27T16:07:48.548Z,14.00
2023-09-27T16:09:50.169Z,15.00
2023-09-27T16:11:51.745Z,14.00
2023-09-27T16:13:53.512Z,13.25
2023-09-27T16:15:55.580Z,12.00
2023-09-27T16:17:57.327Z,12.00
2023-09-27T16:20:00.431Z,12.00
2023-09-27T16:22:02.181Z,10.75
2023-09-27T16:24:04.284Z,15.00
2023-09-27T16:26:06.714Z,12.00
2023-09-27T16:28:08.601Z,15.00
2023-09-27T16:30:11.554Z,14.50
2023-09-27T16:32:13.784Z,13.50
2023-09-27T16:34:15.487Z,13.50
2023-09-27T16:36:18.499Z,11.75
2023-09-27T16:38:20.051Z,14.25
2023-09-27T16:40:21.782Z,11.00
2023-09-27T16:42:23.410Z,10.00
2023-09-27T16:44:24.977Z,15.25
2023-09-27T16:46:26.631Z,14.00
2023-09-27T16:48:28.302Z,13.50
2023-09-27T16:50:29.970Z,13.50
2023-09-27T16:52:33.660Z,14.50
2023-09-27T16:54:35.414Z,14.00
2023-09-27T16:56:36.955Z,16.25
2023-09-27T16:58:38.831Z,16.00
2023-09-27T17:00:40.534Z,16.00
2023-09-27T17:02:42.919Z,16.50
2023-09-27T17:04:44.697Z,15.25
2023-09-27T17:06:46.521Z,16.25
2023-09-27T17:08:49.847Z,16.75
2023-09-27T17:10:51.556Z,19.25
2023-09-27T17:12:53.215Z,17.00
2023-09-27T17:14:54.859Z,16.50
2023-09-27T17:16:56.554Z,15.75
2023-09-27T17:18:58.191Z,16.25
2023-09-27T17:20:59.868Z,18.25
2023-09-27T17:23:01.505Z,16.00
2023-09-27T17:25:06.370Z,18.00
2023-09-27T17:27:08.018Z,19.00
2023-09-27T17:29:09.902Z,18.20
2023-09-27T17:31:11.795Z,16.00
2023-09-27T17:33:13.458Z,16.75
2023-09-27T17:35:15.381Z,16.50
2023-09-27T17:37:17.120Z,17.25
2023-09-27T17:39:18.914Z,13.25
2023-09-27T17:41:22.104Z,13.00
2023-09-27T17:43:23.924Z,16.50
2023-09-27T17:45:25.652Z,18.40
2023-09-27T17:47:27.325Z,16.00
2023-09-27T17:49:29.756Z,16.20
2023-09-27T17:51:31.545Z,16.40
2023-09-27T17:53:33.229Z,16.00
2023-09-27T17:55:34.907Z,16.80
2023-09-27T17:57:37.936Z,16.80
2023-09-27T17:59:39.794Z,16.60
2023-09-27T18:01:41.481Z,17.00
2023-09-27T18:03:43.282Z,16.20
2023-09-27T18:05:44.947Z,15.80
2023-09-27T18:07:46.705Z,15.00
2023-09-27T18:09:48.332Z,13.40
2023-09-27T18:11:49.929Z,17.20
2023-09-27T18:13:53.155Z,16.40
2023-09-27T18:15:54.874Z,15.80
2023-09-27T18:17:56.607Z,15.20
2023-09-27T18:19:59.133Z,15.80
2023-09-27T18:22:01.323Z,16.40
2023-09-27T18:24:03.001Z,14.80
2023-09-27T18:26:04.693Z,15.80
2023-09-27T18:28:06.928Z,15.40
2023-09-27T18:30:11.044Z,15.60
2023-09-27T18:32:12.699Z,16.60
2023-09-27T18:34:14.325Z,16.60
2023-09-27T18:36:15.973Z,16.80
2023-09-27T18:38:17.524Z,13.60
2023-09-27T18:40:19.133Z,16.20
2023-09-27T18:42:20.730Z,18.40
2023-09-27T18:44:22.368Z,17.40
2023-09-27T18:46:25.506Z,20.20
2023-09-27T18:48:27.365Z,19.20
2023-09-27T18:50:29.041Z,18.20
2023-09-27T18:52:30.508Z,19.60
2023-09-27T18:54:32.197Z,19.40
2023-09-27T18:56:33.774Z,18.80
2023-09-27T18:58:35.510Z,17.40
2023-09-27T19:00:37.204Z,17.00
2023-09-27T19:02:40.223Z,17.20
2023-09-27T19:04:41.871Z,20.20
2023-09-27T19:06:43.464Z,17.20
2023-09-27T19:08:45.118Z,19.00
2023-09-27T19:10:46.751Z,19.00
2023-09-27T19:12:48.436Z,16.20
2023-09-27T19:14:50.070Z,18.00
2023-09-27T19:16:51.648Z,17.20
2023-09-27T19:18:54.634Z,19.20
2023-09-27T19:20:56.185Z,18.20
2023-09-27T19:22:57.936Z,18.20
2023-09-27T19:24:59.555Z,18.60
2023-09-27T19:27:01.157Z,21.80
2023-09-27T19:29:02.941Z,18.40
2023-09-27T19:31:04.587Z,18.40
2023-09-27T19:33:06.328Z,18.20
2023-09-27T19:35:09.702Z,19.40
2023-09-27T19:37:11.352Z,20.60
2023-09-27T19:39:14.210Z,20.20
2023-09-27T19:41:16.348Z,20.20
2023-09-27T19:43:18.076Z,19.60
2023-09-27T19:45:21.439Z,20.20
2023-09-27T19:47:23.211Z,17.60
2023-09-27T19:49:24.797Z,21.60
2023-09-27T19:51:28.268Z,20.00
2023-09-27T19:53:29.920Z,22.20
2023-09-27T19:55:31.536Z,19.60
2023-09-27T19:57:33.660Z,20.80
2023-09-27T19:59:35.681Z,19.40
2023-09-27T20:01:38.459Z,21.20
2023-09-27T20:03:40.370Z,21.40
2023-09-27T20:05:42.340Z,21.00
2023-09-27T20:07:45.727Z,20.40
2023-09-27T20:09:47.479Z,20.40
2023-09-27T20:11:49.333Z,19.00
2023-09-27T20:13:50.977Z,22.00
2023-09-27T20:15:52.828Z,21.20
2023-09-27T20:17:54.525Z,20.80
2023-09-27T20:19:56.263Z,20.20
2023-09-27T20:21:58.015Z,22.20
2023-09-27T20:24:01.169Z,19.40
2023-09-27T20:26:03.303Z,23.00
2023-09-27T20:28:05.709Z,21.60
2023-09-27T20:30:08.382Z,21.00
2023-09-27T20:32:10.142Z,22.40
2023-09-27T20:34:11.976Z,22.40
2023-09-27T20:36:14.317Z,20.80
2023-09-27T20:38:16.062Z,23.00
2023-09-27T20:40:19.247Z,21.00
2023-09-27T20:42:21.060Z,22.60
2023-09-27T20:44:22.717Z,20.80
2023-09-27T20:46:24.712Z,23.20
2023-09-27T20:48:26.408Z,23.00
2023-09-27T20:50:27.977Z,22.20
2023-09-27T20:52:29.629Z,22.20
2023-09-27T20:54:31.245Z,21.00
2023-09-27T20:56:34.248Z,21.60
2023-09-27T20:58:36.671Z,21.20
2023-09-27T21:00:38.285Z,20.80
2023-09-27T21:02:39.979Z,17.60
2023-09-27T21:04:41.648Z,15.20
2023-09-27T21:06:44.438Z,20.80
2023-09-27T21:08:45.998Z,21.40
2023-09-27T21:10:47.715Z,20.60
2023-09-27T21:12:50.745Z,23.00
2023-09-27T21:14:52.364Z,19.60
2023-09-27T21:16:53.982Z,21.00
2023-09-27T21:18:56.308Z,20.20
2023-09-27T21:20:57.885Z,21.80
2023-09-27T21:22:59.575Z,20.20
2023-09-27T21:25:01.276Z,18.20
2023-09-27T21:27:02.985Z,21.00
2023-09-27T21:29:06.541Z,14.40
2023-09-27T21:31:09.090Z,20.40
2023-09-27T21:33:10.693Z,18.80
2023-09-27T21:35:12.436Z,21.60
2023-09-27T21:37:14.046Z,20.60
2023-09-27T21:39:15.636Z,18.20
2023-09-27T21:41:18.545Z,15.60
2023-09-27T21:43:20.142Z,13.60
2023-09-27T21:45:23.126Z,18.00
2023-09-27T21:47:24.869Z,18.00
2023-09-27T21:49:26.476Z,15.20
2023-09-27T21:51:28.086Z,19.80
2023-09-27T21:53:29.678Z,21.00
2023-09-27T21:55:31.369Z,21.20
2023-09-27T21:57:32.989Z,20.80
2023-09-27T21:59:34.573Z,20.20
2023-09-27T22:01:37.767Z,20.20
2023-09-27T22:03:39.517Z,22.60
2023-09-27T22:05:41.061Z,20.20
2023-09-27T22:07:42.739Z,21.20
2023-09-27T22:09:44.371Z,21.50
2023-09-27T22:11:45.972Z,21.80
2023-09-27T22:13:47.859Z,22.25
2023-09-27T22:15:51.099Z,22.00
2023-09-27T22:17:54.186Z,20.60
2023-09-27T22:19:55.951Z,23.60
2023-09-27T22:21:58.938Z,23.00
2023-09-27T22:24:00.491Z,23.20
2023-09-27T22:26:03.071Z,22.20
2023-09-27T22:28:05.427Z,21.80
2023-09-27T22:30:08.103Z,18.80
2023-09-27T22:32:09.790Z,22.00
2023-09-27T22:34:12.880Z,21.40
2023-09-27T22:36:14.491Z,19.80
2023-09-27T22:38:16.085Z,15.00
2023-09-27T22:40:18.141Z,21.00
2023-09-27T22:42:19.700Z,20.40
2023-09-27T22:44:22.397Z,22.00
2023-09-27T22:46:25.003Z,22.00
2023-09-27T22:48:26.586Z,24.00
2023-09-27T22:50:29.555Z,19.00
2023-09-27T22:52:31.149Z,20.00
2023-09-27T22:54:32.749Z,23.75
2023-09-27T22:56:34.309Z,24.50
2023-09-27T22:58:36.574Z,21.80
2023-09-27T23:00:38.423Z,22.00
2023-09-27T23:02:40.043Z,21.20
2023-09-27T23:04:41.682Z,22.20
2023-09-27T23:06:46.037Z,24.00
2023-09-27T23:08:49.139Z,21.50
2023-09-27T23:10:50.890Z,15.60
2023-09-27T23:12:52.642Z,22.00
2023-09-27T23:14:54.295Z,21.80
2023-09-27T23:16:55.903Z,21.20
2023-09-27T23:18:58.118Z,18.40
2023-09-27T23:21:00.898Z,19.50
2023-09-27T23:23:04.271Z,21.00
2023-09-27T23:25:06.981Z,16.50
2023-09-27T23:27:08.597Z,15.80
2023-09-27T23:29:10.377Z,20.80
2023-09-27T23:31:12.193Z,19.40
2023-09-27T23:33:13.940Z,24.50
2023-09-27T23:35:15.595Z,23.50
2023-09-27T23:37:18.074Z,20.40
2023-09-27T23:39:21.100Z,21.50
2023-09-27T23:41:23.410Z,23.25
2023-09-27T23:43:25.426Z,23.50
2023-09-27T23:45:27.024Z,23.25
2023-09-27T23:47:28.985Z,23.75
2023-09-27T23:49:30.581Z,24.50
2023-09-27T23:51:33.149Z,23.25
2023-09-27T23:53:34.717Z,21.25
2023-09-27T23:55:37.974Z,18.50
2023-09-27T23:57:40.101Z,21.75
2023-09-27T23:59:41.755Z,22.00
